METAR Formatted Surface Weather Observation
Issued by NWS

Home | Current Version | Previous Version | Text Only | Print | Product List | Glossary On
Versions: 1
844
SAUS41 KPHI 241503
MTRNEL
METAR KNEL 241500Z 07008KT 10SM OVC095 11/04 A3016 RMK AO2 SLPNO
T01110044 50005 $



USA.gov is the U.S. government's official web portal to all federal, state and local government web resources and services.